sensor_id;sensor_type;location;lat;lon;timestamp;pressure;altitude;pressure_sealevel;temperature;humidity
64739;BME280;51175;51.186;0.276;2023-04-26T00:00:28;101611.63;;;13.69;63.53
64739;BME280;51175;51.186;0.276;2023-04-26T00:01:02;101614.28;;;13.69;63.74
64739;BME280;51175;51.186;0.276;2023-04-26T00:01:35;101618.81;;;13.69;63.75
64739;BME280;51175;51.186;0.276;2023-04-26T00:02:05;101611.88;;;13.68;63.85
64739;BME280;51175;51.186;0.276;2023-04-26T00:02:36;101614.53;;;13.68;63.73
64739;BME280;51175;51.186;0.276;2023-04-26T00:03:06;101617.44;;;13.66;63.55
64739;BME280;51175;51.186;0.276;2023-04-26T00:03:36;101618.25;;;13.67;63.67
64739;BME280;51175;51.186;0.276;2023-04-26T00:04:09;101621.94;;;13.65;63.85
64739;BME280;51175;51.186;0.276;2023-04-26T00:04:39;101617.44;;;13.66;63.61
64739;BME280;51175;51.186;0.276;2023-04-26T00:05:10;101616.63;;;13.65;63.67
64739;BME280;51175;51.186;0.276;2023-04-26T00:05:40;101616.88;;;13.64;63.83
64739;BME280;51175;51.186;0.276;2023-04-26T00:06:11;101616.88;;;13.64;63.85
64739;BME280;51175;51.186;0.276;2023-04-26T00:06:43;101616.88;;;13.64;63.54
64739;BME280;51175;51.186;0.276;2023-04-26T00:07:15;101617.94;;;13.63;63.71
64739;BME280;51175;51.186;0.276;2023-04-26T00:07:45;101613.44;;;13.63;63.61
64739;BME280;51175;51.186;0.276;2023-04-26T00:08:15;101619.53;;;13.64;63.82
64739;BME280;51175;51.186;0.276;2023-04-26T00:08:46;101613.69;;;13.62;63.81
64739;BME280;51175;51.186;0.276;2023-04-26T00:09:16;101611.81;;;13.62;63.74
64739;BME280;51175;51.186;0.276;2023-04-26T00:09:48;101616.59;;;13.60;63.80
64739;BME280;51175;51.186;0.276;2023-04-26T00:10:19;101612.06;;;13.61;63.75
64739;BME280;51175;51.186;0.276;2023-04-26T00:10:49;101610.22;;;13.61;63.58
64739;BME280;51175;51.186;0.276;2023-04-26T00:11:19;101611.28;;;13.60;63.61
64739;BME280;51175;51.186;0.276;2023-04-26T00:11:50;101607.81;;;13.60;63.65
64739;BME280;51175;51.186;0.276;2023-04-26T00:12:20;101612.06;;;13.61;63.83
64739;BME280;51175;51.186;0.276;2023-04-26T00:12:51;101607.81;;;13.60;63.76
64739;BME280;51175;51.186;0.276;2023-04-26T00:13:21;101607.03;;;13.59;63.72
64739;BME280;51175;51.186;0.276;2023-04-26T00:13:52;101603.59;;;13.59;63.76
64739;BME280;51175;51.186;0.276;2023-04-26T00:14:22;101601.72;;;13.59;63.71
64739;BME280;51175;51.186;0.276;2023-04-26T00:14:52;101601.44;;;13.56;63.44
64739;BME280;51175;51.186;0.276;2023-04-26T00:15:23;101606.50;;;13.57;63.80
64739;BME280;51175;51.186;0.276;2023-04-26T00:15:53;101604.09;;;13.56;63.76
64739;BME280;51175;51.186;0.276;2023-04-26T00:16:24;101599.56;;;13.56;63.86
64739;BME280;51175;51.186;0.276;2023-04-26T00:16:54;101606.75;;;13.56;63.83
64739;BME280;51175;51.186;0.276;2023-04-26T00:17:25;101598.78;;;13.56;63.71
64739;BME280;51175;51.186;0.276;2023-04-26T00:17:55;101605.69;;;13.57;63.64
64739;BME280;51175;51.186;0.276;2023-04-26T00:18:26;101602.22;;;13.56;63.65
64739;BME280;51175;51.186;0.276;2023-04-26T00:18:56;101600.63;;;13.55;63.87
64739;BME280;51175;51.186;0.276;2023-04-26T00:19:26;101600.63;;;13.55;63.64
64739;BME280;51175;51.186;0.276;2023-04-26T00:19:57;101603.28;;;13.55;63.74
64739;BME280;51175;51.186;0.276;2023-04-26T00:20:27;101599.81;;;13.55;63.48
64739;BME280;51175;51.186;0.276;2023-04-26T00:20:58;101605.13;;;13.55;63.73
64739;BME280;51175;51.186;0.276;2023-04-26T00:21:29;101598.22;;;13.53;63.61
64739;BME280;51175;51.186;0.276;2023-04-26T00:21:59;101596.38;;;13.54;63.79
64739;BME280;51175;51.186;0.276;2023-04-26T00:22:30;101602.72;;;13.53;63.63
64739;BME280;51175;51.186;0.276;2023-04-26T00:23:00;101599.28;;;13.52;64.01
64739;BME280;51175;51.186;0.276;2023-04-26T00:23:32;101601.13;;;13.52;63.88
64739;BME280;51175;51.186;0.276;2023-04-26T00:24:02;101597.66;;;13.51;63.88
64739;BME280;51175;51.186;0.276;2023-04-26T00:24:34;101595.81;;;13.52;63.70
64739;BME280;51175;51.186;0.276;2023-04-26T00:25:05;101595.00;;;13.51;63.83
64739;BME280;51175;51.186;0.276;2023-04-26T00:25:36;101593.41;;;13.50;63.90
64739;BME280;51175;51.186;0.276;2023-04-26T00:26:06;101597.88;;;13.50;64.04
64739;BME280;51175;51.186;0.276;2023-04-26T00:26:37;101586.50;;;13.49;63.94
64739;BME280;51175;51.186;0.276;2023-04-26T00:27:07;101591.81;;;13.49;63.78
64739;BME280;51175;51.186;0.276;2023-04-26T00:27:39;101587.53;;;13.48;63.56
64739;BME280;51175;51.186;0.276;2023-04-26T00:28:09;101588.34;;;13.49;63.60
64739;BME280;51175;51.186;0.276;2023-04-26T00:28:40;101586.75;;;13.48;63.86
64739;BME280;51175;51.186;0.276;2023-04-26T00:29:10;101588.59;;;13.47;64.06
64739;BME280;51175;51.186;0.276;2023-04-26T00:29:41;101593.09;;;13.47;63.72
64739;BME280;51175;51.186;0.276;2023-04-26T00:30:11;101589.41;;;13.48;63.55
64739;BME280;51175;51.186;0.276;2023-04-26T00:30:42;101583.28;;;13.47;63.72
64739;BME280;51175;51.186;0.276;2023-04-26T00:31:17;101585.13;;;13.47;63.75
64739;BME280;51175;51.186;0.276;2023-04-26T00:31:48;101585.13;;;13.47;63.83
64739;BME280;51175;51.186;0.276;2023-04-26T00:32:18;101577.97;;;13.47;63.93
64739;BME280;51175;51.186;0.276;2023-04-26T00:32:49;101575.56;;;13.46;63.74
64739;BME280;51175;51.186;0.276;2023-04-26T00:33:19;101579.28;;;13.45;63.85
64739;BME280;51175;51.186;0.276;2023-04-26T00:33:50;101576.38;;;13.46;63.97
64739;BME280;51175;51.186;0.276;2023-04-26T00:34:20;101579.28;;;13.45;63.70
64739;BME280;51175;51.186;0.276;2023-04-26T00:34:51;101576.63;;;13.45;63.93
64739;BME280;51175;51.186;0.276;2023-04-26T00:35:21;101581.13;;;13.44;63.98
64739;BME280;51175;51.186;0.276;2023-04-26T00:35:52;101576.63;;;13.45;63.71
64739;BME280;51175;51.186;0.276;2023-04-26T00:36:22;101576.63;;;13.45;63.86
64739;BME280;51175;51.186;0.276;2023-04-26T00:36:52;101577.66;;;13.44;63.93
64739;BME280;51175;51.186;0.276;2023-04-26T00:37:23;101577.91;;;13.42;63.85
64739;BME280;51175;51.186;0.276;2023-04-26T00:37:53;101572.59;;;13.42;63.62
64739;BME280;51175;51.186;0.276;2023-04-26T00:38:24;101578.16;;;13.40;63.54
64739;BME280;51175;51.186;0.276;2023-04-26T00:38:54;101578.97;;;13.41;63.69
64739;BME280;51175;51.186;0.276;2023-04-26T00:39:25;101571.03;;;13.41;63.89
64739;BME280;51175;51.186;0.276;2023-04-26T00:39:56;101576.31;;;13.41;63.71
64739;BME280;51175;51.186;0.276;2023-04-26T00:40:26;101573.69;;;13.41;63.56
64739;BME280;51175;51.186;0.276;2023-04-26T00:40:57;101575.50;;;13.40;63.92
64739;BME280;51175;51.186;0.276;2023-04-26T00:41:27;101573.94;;;13.39;63.85
64739;BME280;51175;51.186;0.276;2023-04-26T00:41:57;101568.63;;;13.39;63.92
64739;BME280;51175;51.186;0.276;2023-04-26T00:42:28;101573.13;;;13.39;63.76
64739;BME280;51175;51.186;0.276;2023-04-26T00:42:58;101576.56;;;13.39;64.03
64739;BME280;51175;51.186;0.276;2023-04-26T00:43:28;101570.47;;;13.39;64.04
64739;BME280;51175;51.186;0.276;2023-04-26T00:43:59;101575.75;;;13.39;63.67
64739;BME280;51175;51.186;0.276;2023-04-26T00:44:30;101573.38;;;13.37;63.75
64739;BME280;51175;51.186;0.276;2023-04-26T00:45:00;101575.00;;;13.38;63.72
64739;BME280;51175;51.186;0.276;2023-04-26T00:45:31;101574.19;;;13.38;63.97
64739;BME280;51175;51.186;0.276;2023-04-26T00:46:02;101573.38;;;13.37;63.92
64739;BME280;51175;51.186;0.276;2023-04-26T00:46:32;101573.38;;;13.37;64.00
64739;BME280;51175;51.186;0.276;2023-04-26T00:47:03;101574.44;;;13.36;63.70
64739;BME280;51175;51.186;0.276;2023-04-26T00:47:33;101564.88;;;13.35;63.71
64739;BME280;51175;51.186;0.276;2023-04-26T00:48:04;101563.81;;;13.36;63.95
64739;BME280;51175;51.186;0.276;2023-04-26T00:48:35;101567.53;;;13.35;63.77
64739;BME280;51175;51.186;0.276;2023-04-26T00:49:06;101564.88;;;13.35;63.76
64739;BME280;51175;51.186;0.276;2023-04-26T00:49:36;101565.13;;;13.34;63.89
64739;BME280;51175;51.186;0.276;2023-04-26T00:50:07;101559.56;;;13.35;63.90
64739;BME280;51175;51.186;0.276;2023-04-26T00:50:37;101558.75;;;13.35;63.92
64739;BME280;51175;51.186;0.276;2023-04-26T00:51:08;101559.81;;;13.34;63.99
64739;BME280;51175;51.186;0.276;2023-04-26T00:51:39;101559.81;;;13.34;64.00
64739;BME280;51175;51.186;0.276;2023-04-26T00:52:09;101564.31;;;13.33;63.72
64739;BME280;51175;51.186;0.276;2023-04-26T00:52:40;101559.00;;;13.33;63.96
64739;BME280;51175;51.186;0.276;2023-04-26T00:53:11;101559.81;;;13.34;63.72
64739;BME280;51175;51.186;0.276;2023-04-26T00:53:43;101563.50;;;13.33;63.76
64739;BME280;51175;51.186;0.276;2023-04-26T00:54:14;101562.69;;;13.32;63.88
64739;BME280;51175;51.186;0.276;2023-04-26T00:54:44;101568.00;;;13.32;63.93
64739;BME280;51175;51.186;0.276;2023-04-26T00:55:15;101559.25;;;13.32;63.99
64739;BME280;51175;51.186;0.276;2023-04-26T00:55:47;101563.75;;;13.31;63.72
64739;BME280;51175;51.186;0.276;2023-04-26T00:56:18;101568.25;;;13.31;63.80
64739;BME280;51175;51.186;0.276;2023-04-26T00:56:50;101567.47;;;13.30;63.88
64739;BME280;51175;51.186;0.276;2023-04-26T00:57:22;101563.19;;;13.29;64.02
64739;BME280;51175;51.186;0.276;2023-04-26T00:57:53;101562.16;;;13.30;64.10
64739;BME280;51175;51.186;0.276;2023-04-26T00:58:24;101564.00;;;13.29;63.68
64739;BME280;51175;51.186;0.276;2023-04-26T00:58:55;101564.00;;;13.29;64.10
64739;BME280;51175;51.186;0.276;2023-04-26T00:59:25;101561.63;;;13.28;63.77
64739;BME280;51175;51.186;0.276;2023-04-26T00:59:56;101559.78;;;13.28;63.76
64739;BME280;51175;51.186;0.276;2023-04-26T01:00:26;101564.25;;;13.28;63.92
64739;BME280;51175;51.186;0.276;2023-04-26T01:00:56;101560.81;;;13.27;63.69
64739;BME280;51175;51.186;0.276;2023-04-26T01:01:27;101558.97;;;13.28;63.69
64739;BME280;51175;51.186;0.276;2023-04-26T01:01:58;101556.31;;;13.28;63.94
64739;BME280;51175;51.186;0.276;2023-04-26T01:02:29;101558.16;;;13.27;63.93
64739;BME280;51175;51.186;0.276;2023-04-26T01:02:59;101556.56;;;13.26;63.97
64739;BME280;51175;51.186;0.276;2023-04-26T01:03:30;101555.75;;;13.26;63.80
64739;BME280;51175;51.186;0.276;2023-04-26T01:04:01;101555.22;;;13.24;63.96
64739;BME280;51175;51.186;0.276;2023-04-26T01:04:31;101559.47;;;13.25;63.82
64739;BME280;51175;51.186;0.276;2023-04-26T01:05:02;101551.75;;;13.23;63.72
64739;BME280;51175;51.186;0.276;2023-04-26T01:05:34;101557.88;;;13.24;63.85
64739;BME280;51175;51.186;0.276;2023-04-26T01:06:05;101554.16;;;13.25;63.87
64739;BME280;51175;51.186;0.276;2023-04-26T01:06:36;101550.94;;;13.23;63.86
64739;BME280;51175;51.186;0.276;2023-04-26T01:07:07;101558.91;;;13.23;63.76
64739;BME280;51175;51.186;0.276;2023-04-26T01:07:38;101562.63;;;13.22;64.04
64739;BME280;51175;51.186;0.276;2023-04-26T01:08:09;101555.47;;;13.22;63.79
64739;BME280;51175;51.186;0.276;2023-04-26T01:08:40;101559.97;;;13.22;63.81
64739;BME280;51175;51.186;0.276;2023-04-26T01:09:10;101552.25;;;13.20;63.82
64739;BME280;51175;51.186;0.276;2023-04-26T01:09:44;101563.69;;;13.21;63.96
64739;BME280;51175;51.186;0.276;2023-04-26T01:10:16;101554.09;;;13.20;64.02
64739;BME280;51175;51.186;0.276;2023-04-26T01:10:47;101564.72;;;13.20;63.69
64739;BME280;51175;51.186;0.276;2023-04-26T01:11:21;101564.72;;;13.20;64.00
64739;BME280;51175;51.186;0.276;2023-04-26T01:11:52;101564.72;;;13.20;63.83
64739;BME280;51175;51.186;0.276;2023-04-26T01:12:25;101569.22;;;13.19;64.05
64739;BME280;51175;51.186;0.276;2023-04-26T01:12:57;101565.78;;;13.19;64.00
64739;BME280;51175;51.186;0.276;2023-04-26T01:13:28;101563.13;;;13.19;63.87
64739;BME280;51175;51.186;0.276;2023-04-26T01:14:01;101564.97;;;13.18;63.74
64739;BME280;51175;51.186;0.276;2023-04-26T01:14:33;101567.59;;;13.18;63.73
64739;BME280;51175;51.186;0.276;2023-04-26T01:15:06;101569.47;;;13.18;63.81
64739;BME280;51175;51.186;0.276;2023-04-26T01:15:36;101568.66;;;13.17;63.91
64739;BME280;51175;51.186;0.276;2023-04-26T01:16:07;101567.84;;;13.16;63.99
64739;BME280;51175;51.186;0.276;2023-04-26T01:16:37;101568.94;;;13.15;63.85
64739;BME280;51175;51.186;0.276;2023-04-26T01:17:09;101568.94;;;13.15;63.78
64739;BME280;51175;51.186;0.276;2023-04-26T01:17:40;101560.97;;;13.15;64.04
64739;BME280;51175;51.186;0.276;2023-04-26T01:18:10;101572.63;;;13.14;63.84
64739;BME280;51175;51.186;0.276;2023-04-26T01:18:41;101571.56;;;13.15;63.73
64739;BME280;51175;51.186;0.276;2023-04-26T01:19:12;101562.28;;;13.13;63.78
64739;BME280;51175;51.186;0.276;2023-04-26T01:19:48;101563.06;;;13.13;63.89
64739;BME280;51175;51.186;0.276;2023-04-26T01:20:19;101563.06;;;13.13;63.99
64739;BME280;51175;51.186;0.276;2023-04-26T01:20:50;101558.81;;;13.12;63.98
64739;BME280;51175;51.186;0.276;2023-04-26T01:21:23;101563.06;;;13.13;63.80
64739;BME280;51175;51.186;0.276;2023-04-26T01:21:53;101565.97;;;13.12;64.05
64739;BME280;51175;51.186;0.276;2023-04-26T01:22:24;101559.63;;;13.13;64.11
64739;BME280;51175;51.186;0.276;2023-04-26T01:22:54;101561.47;;;13.12;64.01
64739;BME280;51175;51.186;0.276;2023-04-26T01:23:25;101561.47;;;13.12;63.82
64739;BME280;51175;51.186;0.276;2023-04-26T01:23:55;101563.31;;;13.12;64.04
64739;BME280;51175;51.186;0.276;2023-04-26T01:24:25;101564.13;;;13.12;64.15
64739;BME280;51175;51.186;0.276;2023-04-26T01:24:57;101557.22;;;13.11;63.93
64739;BME280;51175;51.186;0.276;2023-04-26T01:25:28;101554.56;;;13.11;63.75
64739;BME280;51175;51.186;0.276;2023-04-26T01:25:59;101563.31;;;13.12;63.99
64739;BME280;51175;51.186;0.276;2023-04-26T01:26:29;101567.84;;;13.11;63.92
64739;BME280;51175;51.186;0.276;2023-04-26T01:27:01;101562.53;;;13.11;63.64
64739;BME280;51175;51.186;0.276;2023-04-26T01:27:33;101555.59;;;13.10;64.01
64739;BME280;51175;51.186;0.276;2023-04-26T01:28:04;101566.22;;;13.10;63.76
64739;BME280;51175;51.186;0.276;2023-04-26T01:28:35;101562.78;;;13.10;63.79
64739;BME280;51175;51.186;0.276;2023-04-26T01:29:15;101557.47;;;13.10;63.79
64739;BME280;51175;51.186;0.276;2023-04-26T01:29:46;101560.13;;;13.10;64.05
64739;BME280;51175;51.186;0.276;2023-04-26T01:30:16;101559.31;;;13.09;63.78
64739;BME280;51175;51.186;0.276;2023-04-26T01:30:47;101565.44;;;13.10;63.79
64739;BME280;51175;51.186;0.276;2023-04-26T01:31:17;101561.97;;;13.09;63.71
64739;BME280;51175;51.186;0.276;2023-04-26T01:31:48;101555.06;;;13.08;63.93
64739;BME280;51175;51.186;0.276;2023-04-26T01:32:18;101555.06;;;13.08;63.78
64739;BME280;51175;51.186;0.276;2023-04-26T01:32:49;101548.97;;;13.08;63.77
64739;BME280;51175;51.186;0.276;2023-04-26T01:33:19;101553.44;;;13.07;63.68
64739;BME280;51175;51.186;0.276;2023-04-26T01:33:49;101552.66;;;13.07;64.00
64739;BME280;51175;51.186;0.276;2023-04-26T01:34:20;101552.91;;;13.05;64.06
64739;BME280;51175;51.186;0.276;2023-04-26T01:34:50;101551.06;;;13.06;63.71
64739;BME280;51175;51.186;0.276;2023-04-26T01:35:21;101546.81;;;13.04;63.92
64739;BME280;51175;51.186;0.276;2023-04-26T01:35:51;101552.91;;;13.05;64.00
64739;BME280;51175;51.186;0.276;2023-04-26T01:36:22;101551.31;;;13.04;63.78
64739;BME280;51175;51.186;0.276;2023-04-26T01:36:53;101549.72;;;13.03;63.83
64739;BME280;51175;51.186;0.276;2023-04-26T01:37:23;101560.31;;;13.03;63.96
64739;BME280;51175;51.186;0.276;2023-04-26T01:37:54;101551.56;;;13.02;63.81
64739;BME280;51175;51.186;0.276;2023-04-26T01:38:24;101556.06;;;13.02;63.97
64739;BME280;51175;51.186;0.276;2023-04-26T01:38:55;101560.56;;;13.01;63.96
64739;BME280;51175;51.186;0.276;2023-04-26T01:39:25;101557.91;;;13.01;64.20
64739;BME280;51175;51.186;0.276;2023-04-26T01:39:56;101559.75;;;13.01;63.99
64739;BME280;51175;51.186;0.276;2023-04-26T01:40:26;101565.06;;;13.01;63.99
64739;BME280;51175;51.186;0.276;2023-04-26T01:40:57;101557.09;;;13.01;63.95
64739;BME280;51175;51.186;0.276;2023-04-26T01:41:27;101566.13;;;13.00;63.95
64739;BME280;51175;51.186;0.276;2023-04-26T01:41:57;101560.00;;;12.99;63.80
64739;BME280;51175;51.186;0.276;2023-04-26T01:42:28;101558.16;;;13.00;63.87
64739;BME280;51175;51.186;0.276;2023-04-26T01:42:58;101560.00;;;12.99;63.89
64739;BME280;51175;51.186;0.276;2023-04-26T01:43:29;101561.06;;;12.98;64.13
64739;BME280;51175;51.186;0.276;2023-04-26T01:43:59;101557.59;;;12.98;64.11
64739;BME280;51175;51.186;0.276;2023-04-26T01:44:30;101560.00;;;12.99;63.88
64739;BME280;51175;51.186;0.276;2023-04-26T01:45:01;101556.78;;;12.97;64.14
64739;BME280;51175;51.186;0.276;2023-04-26T01:45:31;101553.09;;;12.98;63.97
64739;BME280;51175;51.186;0.276;2023-04-26T01:46:01;101554.13;;;12.97;64.06
64739;BME280;51175;51.186;0.276;2023-04-26T01:46:31;101548.84;;;12.97;63.89
64739;BME280;51175;51.186;0.276;2023-04-26T01:47:02;101548.06;;;12.97;63.91
64739;BME280;51175;51.186;0.276;2023-04-26T01:47:33;101551.75;;;12.96;64.16
64739;BME280;51175;51.186;0.276;2023-04-26T01:48:04;101550.97;;;12.95;64.17
64739;BME280;51175;51.186;0.276;2023-04-26T01:48:34;101554.63;;;12.94;64.15
64739;BME280;51175;51.186;0.276;2023-04-26T01:49:04;101553.59;;;12.95;64.01
64739;BME280;51175;51.186;0.276;2023-04-26T01:49:35;101546.69;;;12.94;63.80
64739;BME280;51175;51.186;0.276;2023-04-26T01:50:06;101555.44;;;12.95;64.08
64739;BME280;51175;51.186;0.276;2023-04-26T01:50:37;101550.16;;;12.95;63.91
64739;BME280;51175;51.186;0.276;2023-04-26T01:51:07;101546.69;;;12.94;63.86
64739;BME280;51175;51.186;0.276;2023-04-26T01:51:37;101546.69;;;12.94;64.10
64739;BME280;51175;51.186;0.276;2023-04-26T01:52:08;101546.69;;;12.94;63.94
64739;BME280;51175;51.186;0.276;2023-04-26T01:52:38;101550.41;;;12.93;63.93
64739;BME280;51175;51.186;0.276;2023-04-26T01:53:09;101543.50;;;12.92;64.03
64739;BME280;51175;51.186;0.276;2023-04-26T01:53:39;101545.34;;;12.91;63.87
64739;BME280;51175;51.186;0.276;2023-04-26T01:54:09;101543.50;;;12.92;63.87
64739;BME280;51175;51.186;0.276;2023-04-26T01:54:40;101539.78;;;12.93;63.97
64739;BME280;51175;51.186;0.276;2023-04-26T01:55:10;101540.84;;;12.92;63.87
64739;BME280;51175;51.186;0.276;2023-04-26T01:55:40;101544.53;;;12.91;64.06
64739;BME280;51175;51.186;0.276;2023-04-26T01:56:11;101544.53;;;12.91;63.93
64739;BME280;51175;51.186;0.276;2023-04-26T01:56:41;101543.75;;;12.90;64.08
64739;BME280;51175;51.186;0.276;2023-04-26T01:57:11;101541.88;;;12.91;63.91
64739;BME280;51175;51.186;0.276;2023-04-26T01:57:42;101549.06;;;12.90;64.21
64739;BME280;51175;51.186;0.276;2023-04-26T01:58:12;101546.41;;;12.90;63.91
64739;BME280;51175;51.186;0.276;2023-04-26T01:58:42;101549.84;;;12.91;64.09
64739;BME280;51175;51.186;0.276;2023-04-26T01:59:13;101543.75;;;12.90;64.11
64739;BME280;51175;51.186;0.276;2023-04-26T01:59:43;101545.59;;;12.90;64.11
64739;BME280;51175;51.186;0.276;2023-04-26T02:00:14;101545.59;;;12.90;63.95
64739;BME280;51175;51.186;0.276;2023-04-26T02:00:44;101547.44;;;12.89;63.78
64739;BME280;51175;51.186;0.276;2023-04-26T02:01:15;101543.75;;;12.90;64.13
64739;BME280;51175;51.186;0.276;2023-04-26T02:01:45;101548.25;;;12.90;64.11
64739;BME280;51175;51.186;0.276;2023-04-26T02:02:16;101544.00;;;12.89;63.96
64739;BME280;51175;51.186;0.276;2023-04-26T02:02:48;101541.34;;;12.89;64.06
64739;BME280;51175;51.186;0.276;2023-04-26T02:03:18;101537.88;;;12.88;63.84
64739;BME280;51175;51.186;0.276;2023-04-26T02:03:48;101537.06;;;12.88;63.84
64739;BME280;51175;51.186;0.276;2023-04-26T02:04:19;101539.72;;;12.88;63.94
64739;BME280;51175;51.186;0.276;2023-04-26T02:04:49;101530.19;;;12.87;63.77
64739;BME280;51175;51.186;0.276;2023-04-26T02:05:20;101536.28;;;12.87;64.16
64739;BME280;51175;51.186;0.276;2023-04-26T02:05:50;101534.66;;;12.86;63.98
64739;BME280;51175;51.186;0.276;2023-04-26T02:06:21;101534.66;;;12.86;63.87
64739;BME280;51175;51.186;0.276;2023-04-26T02:06:51;101532.84;;;12.87;63.98
64739;BME280;51175;51.186;0.276;2023-04-26T02:07:22;101528.59;;;12.86;64.09
64739;BME280;51175;51.186;0.276;2023-04-26T02:07:52;101530.44;;;12.85;63.95
64739;BME280;51175;51.186;0.276;2023-04-26T02:08:22;101525.94;;;12.86;63.87
64739;BME280;51175;51.186;0.276;2023-04-26T02:08:53;101519.00;;;12.85;64.21
64739;BME280;51175;51.186;0.276;2023-04-26T02:09:23;101532.28;;;12.85;63.97
64739;BME280;51175;51.186;0.276;2023-04-26T02:09:53;101526.97;;;12.85;63.88
64739;BME280;51175;51.186;0.276;2023-04-26T02:10:24;101530.69;;;12.84;64.08
64739;BME280;51175;51.186;0.276;2023-04-26T02:10:54;101525.38;;;12.84;64.21
64739;BME280;51175;51.186;0.276;2023-04-26T02:11:25;101534.13;;;12.84;64.01
64739;BME280;51175;51.186;0.276;2023-04-26T02:11:56;101527.22;;;12.83;63.80
64739;BME280;51175;51.186;0.276;2023-04-26T02:12:26;101523.78;;;12.83;63.96
64739;BME280;51175;51.186;0.276;2023-04-26T02:12:56;101521.91;;;12.83;64.05
64739;BME280;51175;51.186;0.276;2023-04-26T02:13:27;101522.16;;;12.82;63.98
64739;BME280;51175;51.186;0.276;2023-04-26T02:13:57;101519.50;;;12.82;64.20
64739;BME280;51175;51.186;0.276;2023-04-26T02:14:27;101521.13;;;12.83;64.00
64739;BME280;51175;51.186;0.276;2023-04-26T02:14:58;101523.22;;;12.81;64.15
64739;BME280;51175;51.186;0.276;2023-04-26T02:15:28;101517.69;;;12.82;64.04
64739;BME280;51175;51.186;0.276;2023-04-26T02:15:58;101519.50;;;12.82;64.17
64739;BME280;51175;51.186;0.276;2023-04-26T02:16:29;101522.16;;;12.82;64.01
64739;BME280;51175;51.186;0.276;2023-04-26T02:16:59;101524.81;;;12.82;63.96
64739;BME280;51175;51.186;0.276;2023-04-26T02:17:31;101524.81;;;12.82;64.02
64739;BME280;51175;51.186;0.276;2023-04-26T02:18:01;101520.56;;;12.81;63.88
64739;BME280;51175;51.186;0.276;2023-04-26T02:18:32;101522.41;;;12.80;64.08
64739;BME280;51175;51.186;0.276;2023-04-26T02:19:03;101524.03;;;12.81;64.04
64739;BME280;51175;51.186;0.276;2023-04-26T02:19:34;101529.59;;;12.79;64.10
64739;BME280;51175;51.186;0.276;2023-04-26T02:20:05;101526.13;;;12.79;63.94
64739;BME280;51175;51.186;0.276;2023-04-26T02:20:43;101526.13;;;12.79;64.03
64739;BME280;51175;51.186;0.276;2023-04-26T02:21:16;101527.19;;;12.78;64.19
64739;BME280;51175;51.186;0.276;2023-04-26T02:21:51;101529.84;;;12.78;64.16
64739;BME280;51175;51.186;0.276;2023-04-26T02:22:22;101535.91;;;12.78;64.06
64739;BME280;51175;51.186;0.276;2023-04-26T02:22:54;101530.88;;;12.77;63.86
64739;BME280;51175;51.186;0.276;2023-04-26T02:23:24;101533.50;;;12.77;63.85
64739;BME280;51175;51.186;0.276;2023-04-26T02:23:55;101529.03;;;12.77;64.19
64739;BME280;51175;51.186;0.276;2023-04-26T02:24:26;101535.13;;;12.78;64.07
64739;BME280;51175;51.186;0.276;2023-04-26T02:24:56;101535.38;;;12.76;64.03
64739;BME280;51175;51.186;0.276;2023-04-26T02:25:27;101533.50;;;12.77;63.99
64739;BME280;51175;51.186;0.276;2023-04-26T02:25:57;101538.81;;;12.77;64.11
64739;BME280;51175;51.186;0.276;2023-04-26T02:26:28;101531.94;;;12.76;64.30
64739;BME280;51175;51.186;0.276;2023-04-26T02:26:58;101537.22;;;12.76;64.05
64739;BME280;51175;51.186;0.276;2023-04-26T02:27:32;101537.22;;;12.76;63.90
64739;BME280;51175;51.186;0.276;2023-04-26T02:28:06;101541.72;;;12.75;64.01
64739;BME280;51175;51.186;0.276;2023-04-26T02:28:37;101535.63;;;12.75;63.94
64739;BME280;51175;51.186;0.276;2023-04-26T02:29:07;101534.81;;;12.74;64.01
64739;BME280;51175;51.186;0.276;2023-04-26T02:29:38;101538.28;;;12.75;64.04
64739;BME280;51175;51.186;0.276;2023-04-26T02:30:09;101534.81;;;12.74;64.20
64739;BME280;51175;51.186;0.276;2023-04-26T02:30:40;101541.72;;;12.75;63.95
64739;BME280;51175;51.186;0.276;2023-04-26T02:31:10;101534.81;;;12.74;64.24
64739;BME280;51175;51.186;0.276;2023-04-26T02:31:40;101536.66;;;12.74;64.03
64739;BME280;51175;51.186;0.276;2023-04-26T02:32:12;101537.72;;;12.73;64.02
64739;BME280;51175;51.186;0.276;2023-04-26T02:32:42;101532.41;;;12.73;63.98
64739;BME280;51175;51.186;0.276;2023-04-26T02:33:12;101536.66;;;12.74;64.00
64739;BME280;51175;51.186;0.276;2023-04-26T02:33:43;101541.19;;;12.73;63.95
64739;BME280;51175;51.186;0.276;2023-04-26T02:34:13;101534.81;;;12.74;64.11
64739;BME280;51175;51.186;0.276;2023-04-26T02:34:43;101531.63;;;12.72;63.93
64739;BME280;51175;51.186;0.276;2023-04-26T02:35:14;101535.88;;;12.73;63.86
64739;BME280;51175;51.186;0.276;2023-04-26T02:35:44;101534.00;;;12.74;63.94
64739;BME280;51175;51.186;0.276;2023-04-26T02:36:15;101540.38;;;12.73;64.08
64739;BME280;51175;51.186;0.276;2023-04-26T02:36:45;101538.53;;;12.73;64.16
64739;BME280;51175;51.186;0.276;2023-04-26T02:37:15;101536.13;;;12.72;64.07
64739;BME280;51175;51.186;0.276;2023-04-26T02:37:46;101536.13;;;12.72;63.85
64739;BME280;51175;51.186;0.276;2023-04-26T02:38:21;101536.13;;;12.72;63.93
64739;BME280;51175;51.186;0.276;2023-04-26T02:38:51;101542.22;;;12.72;64.09
64739;BME280;51175;51.186;0.276;2023-04-26T02:39:22;101537.97;;;12.71;64.06
64739;BME280;51175;51.186;0.276;2023-04-26T02:39:52;101540.63;;;12.71;64.16
64739;BME280;51175;51.186;0.276;2023-04-26T02:40:23;101530.84;;;12.72;64.04
64739;BME280;51175;51.186;0.276;2023-04-26T02:40:57;101533.72;;;12.70;64.07
64739;BME280;51175;51.186;0.276;2023-04-26T02:41:30;101536.38;;;12.70;64.11